Airfield :
LOGIN :

Register | Disclaimer

   EN    FR    IT 

 










Legend :    VFR   Marginal VFR   IFR   Intensive IFR   Very Intensive IFR
Visi :
Ceiling :
>= 8 km
>= 3000ft
5 to 8 km
1000 to 3000 ft
1500m to 5 km
500 to 1000 ft
800 to 1500m
200 to 500 ft
< 800m
< 200 ft
Symbols :   Thunderstorms  Fog  Heavy snow  Heavy precipitations  Wind > 20 kt
SIGMETs :     Misc.  Thunderstorms  Icing  Turbulence  Mountain Waves  Volcanic Ashes






- Airport Elevation : 502 ft
- IATA code : ORK


EICK - Cork

CURRENT METAR :
  • 222230Z 01008KT 9999 FEW003 BKN006 BKN010 05/05 Q0990 TEMPO 3000

EXPIRED METARs :
  • 222200Z 36010KT 9999 FEW003 BKN005 BKN025 06/05 Q0990 TEMPO 3000
  • 222130Z 02009KT 9999 FEW005 BKN022 05/05 Q0990 NOSIG
  • 222100Z 36010KT 9999 -SHRA FEW005 SCT018 BKN030 05/05 Q0990 NOSIG
  • 222030Z 36010KT 9999 FEW004 BKN030 05/04 Q0989 NOSIG
  • 222000Z 01009KT 9999 FEW004 BKN014 05/05 Q0989 NOSIG

TAF AMD TAF EICK
Valid from the 22 at 19:00 until the 23 at 18:00 UTC


221945Z 2219/2318 35008KT 9999 FEW008 BKN015
TEMPO 2219/2303 3000 BR BKN004 BKN012
PROB30
TEMPO 2219/2303 0400 FG BKN002
PROB40
TEMPO 2304/2312 3000 -RADZ BR BKN004



MET'MAP, your aeronautical weather chart ! - Copyright ORBIFLY December 2007 - Disclaimer

ORBIFLY MET'MAP TEAM :

Programming & Development : Alexandra Zaïnal
Concept & Development : Baudouin d'Aumeries
Co-Development & Prog : Marc-Olivier Méhu
Technical & hardware support : Manuel Goepfert

Contact : metmap@orbifly.com




SOURCES & CREDITS :

   NOAA